createdAt,value
2022-11-20T00:00:35.356Z,6.47
2022-11-20T00:01:38.587Z,8.40
2022-11-20T00:02:40.800Z,7.03
2022-11-20T00:03:48.217Z,8.98
2022-11-20T00:04:50.625Z,6.40
2022-11-20T00:05:54.118Z,7.75
2022-11-20T00:06:57.168Z,8.90
2022-11-20T00:07:59.314Z,5.47
2022-11-20T00:09:03.520Z,6.80
2022-11-20T00:10:06.977Z,5.63
2022-11-20T00:11:17.279Z,5.13
2022-11-20T00:12:19.925Z,4.22
2022-11-20T00:13:23.004Z,8.95
2022-11-20T00:14:25.316Z,5.78
2022-11-20T00:15:28.483Z,9.52
2022-11-20T00:16:34.160Z,8.90
2022-11-20T00:17:37.360Z,6.10
2022-11-20T00:18:39.941Z,6.57
2022-11-20T00:19:44.831Z,5.25
2022-11-20T00:20:47.254Z,6.38
2022-11-20T00:21:52.398Z,8.57
2022-11-20T00:22:54.815Z,6.07
2022-11-20T00:23:59.369Z,7.05
2022-11-20T00:25:01.450Z,5.93
2022-11-20T00:26:05.864Z,4.97
2022-11-20T00:27:08.118Z,6.30
2022-11-20T00:28:11.671Z,7.28
2022-11-20T00:29:15.068Z,8.20
2022-11-20T00:30:17.215Z,8.90
2022-11-20T00:31:20.818Z,9.13
2022-11-20T00:32:22.909Z,8.82
2022-11-20T00:33:25.973Z,13.27
2022-11-20T00:34:28.243Z,14.57
2022-11-20T00:35:33.054Z,17.80
2022-11-20T00:36:35.425Z,20.20
2022-11-20T00:37:38.709Z,15.70
2022-11-20T00:38:41.067Z,15.88
2022-11-20T00:39:44.223Z,10.77
2022-11-20T00:40:49.803Z,8.85
2022-11-20T00:41:55.561Z,9.00
2022-11-20T00:42:57.688Z,8.48
2022-11-20T00:44:00.932Z,7.13
2022-11-20T00:45:03.451Z,7.35
2022-11-20T00:46:08.922Z,5.00
2022-11-20T00:47:11.568Z,5.95
2022-11-20T00:48:14.878Z,6.35
2022-11-20T00:49:18.387Z,6.65
2022-11-20T00:50:20.758Z,6.95
2022-11-20T00:51:27.908Z,5.15
2022-11-20T00:52:30.419Z,6.75
2022-11-20T00:53:34.003Z,6.45
2022-11-20T00:54:57.717Z,6.05
2022-11-20T00:56:02.775Z,6.25
2022-11-20T00:57:05.820Z,6.18
2022-11-20T00:58:11.568Z,7.05
2022-11-20T00:59:17.321Z,7.93
2022-11-20T01:00:19.698Z,6.13
2022-11-20T01:01:25.235Z,5.90
2022-11-20T01:02:27.705Z,8.65
2022-11-20T01:03:33.667Z,11.75
2022-11-20T01:04:35.885Z,4.88
2022-11-20T01:05:39.011Z,6.88
2022-11-20T01:06:42.527Z,6.10
2022-11-20T01:07:45.661Z,5.68
2022-11-20T01:08:48.639Z,6.38
2022-11-20T01:09:51.718Z,7.57
2022-11-20T01:10:53.893Z,6.30
2022-11-20T01:11:57.177Z,8.65
2022-11-20T01:13:14.145Z,6.03
2022-11-20T01:14:20.008Z,5.80
2022-11-20T01:15:22.169Z,5.50
2022-11-20T01:16:28.465Z,7.97
2022-11-20T01:17:32.155Z,4.55
2022-11-20T01:18:35.707Z,9.40
2022-11-20T01:19:39.030Z,6.50
2022-11-20T01:20:41.338Z,6.35
2022-11-20T01:21:47.710Z,6.53
2022-11-20T01:22:49.733Z,8.18
2022-11-20T01:23:53.825Z,6.22
2022-11-20T01:24:55.923Z,5.50
2022-11-20T01:25:59.041Z,8.63
2022-11-20T01:27:02.191Z,6.35
2022-11-20T01:28:04.406Z,8.63
2022-11-20T01:29:09.240Z,8.00
2022-11-20T01:30:12.669Z,5.63
2022-11-20T01:31:17.591Z,8.10
2022-11-20T01:32:19.724Z,6.57
2022-11-20T01:33:22.849Z,9.52
2022-11-20T01:34:25.897Z,6.22
2022-11-20T01:35:28.975Z,5.25
2022-11-20T01:36:34.406Z,6.45
2022-11-20T01:37:37.893Z,7.47
2022-11-20T01:38:41.436Z,6.70
2022-11-20T01:39:44.904Z,6.45
2022-11-20T01:40:47.299Z,8.10
2022-11-20T01:42:11.059Z,5.97
2022-11-20T01:43:21.896Z,8.55
2022-11-20T01:44:55.527Z,8.15
2022-11-20T01:46:01.277Z,8.57
2022-11-20T01:47:08.891Z,5.45
2022-11-20T01:48:11.719Z,9.98
2022-11-20T01:49:21.727Z,10.25
2022-11-20T01:50:29.808Z,6.38
2022-11-20T01:51:37.207Z,8.45
2022-11-20T01:52:43.934Z,8.93
2022-11-20T01:53:48.568Z,8.00
2022-11-20T01:54:56.918Z,8.68
2022-11-20T01:56:04.143Z,8.77
2022-11-20T01:57:09.088Z,6.30
2022-11-20T01:58:14.255Z,7.65
2022-11-20T01:59:20.044Z,5.97
2022-11-20T02:00:24.369Z,7.25
2022-11-20T02:01:27.027Z,7.18
2022-11-20T02:02:30.492Z,8.38
2022-11-20T02:03:33.225Z,8.68
2022-11-20T02:04:36.932Z,6.38
2022-11-20T02:05:46.018Z,5.90
2022-11-20T02:06:52.089Z,6.00
2022-11-20T02:07:57.243Z,7.65
2022-11-20T02:09:00.309Z,6.20
2022-11-20T02:10:02.734Z,6.32
2022-11-20T02:11:05.888Z,7.25
2022-11-20T02:12:28.699Z,7.13
2022-11-20T02:13:46.753Z,6.38
2022-11-20T02:14:48.932Z,11.38
2022-11-20T02:15:51.412Z,7.03
2022-11-20T02:16:56.420Z,6.75
2022-11-20T02:17:58.692Z,5.38
2022-11-20T02:19:04.601Z,7.15
2022-11-20T02:20:07.870Z,6.63
2022-11-20T02:21:17.395Z,11.30
2022-11-20T02:22:25.388Z,6.40
2022-11-20T02:23:35.196Z,5.65
2022-11-20T02:24:40.114Z,6.70
2022-11-20T02:25:43.813Z,9.05
2022-11-20T02:26:51.743Z,13.25
2022-11-20T02:27:53.831Z,7.65
2022-11-20T02:28:57.051Z,5.35
2022-11-20T02:30:03.239Z,7.03
2022-11-20T02:31:05.629Z,8.43
2022-11-20T02:32:08.929Z,8.82
2022-11-20T02:33:11.027Z,7.47
2022-11-20T02:34:14.089Z,6.88
2022-11-20T02:35:41.836Z,6.03
2022-11-20T02:36:45.208Z,6.72
2022-11-20T02:37:50.138Z,6.15
2022-11-20T02:38:53.443Z,6.35
2022-11-20T02:39:57.389Z,4.82
2022-11-20T02:41:00.537Z,9.50
2022-11-20T02:42:03.301Z,6.10
2022-11-20T02:43:06.629Z,8.23
2022-11-20T02:44:08.711Z,6.43
2022-11-20T02:45:12.277Z,8.40
2022-11-20T02:46:15.182Z,4.32
2022-11-20T02:47:18.260Z,6.35
2022-11-20T02:48:20.308Z,9.57
2022-11-20T02:49:23.704Z,6.32
2022-11-20T02:50:26.316Z,7.68
2022-11-20T02:51:29.449Z,7.80
2022-11-20T02:52:31.894Z,5.32
2022-11-20T02:53:35.064Z,6.78
2022-11-20T02:54:37.249Z,8.00
2022-11-20T02:55:41.888Z,6.10
2022-11-20T02:56:44.477Z,6.88
2022-11-20T02:57:47.627Z,8.13
2022-11-20T02:58:49.963Z,5.68
2022-11-20T02:59:53.146Z,6.05
2022-11-20T03:00:55.550Z,10.90
2022-11-20T03:02:00.184Z,6.20
2022-11-20T03:03:02.630Z,5.68
2022-11-20T03:04:06.256Z,4.88
2022-11-20T03:05:09.362Z,5.88
2022-11-20T03:06:12.660Z,8.75
2022-11-20T03:07:14.752Z,4.90
2022-11-20T03:08:17.800Z,6.28
2022-11-20T03:09:20.043Z,10.05
2022-11-20T03:10:23.213Z,6.32
2022-11-20T03:11:26.644Z,9.35
2022-11-20T03:12:29.681Z,8.48
2022-11-20T03:13:31.712Z,6.22
2022-11-20T03:14:34.789Z,11.13
2022-11-20T03:15:37.552Z,7.35
2022-11-20T03:16:40.588Z,7.07
2022-11-20T03:17:42.596Z,8.18
2022-11-20T03:18:46.221Z,5.13
2022-11-20T03:19:48.273Z,7.15
2022-11-20T03:20:51.306Z,7.13
2022-11-20T03:21:53.375Z,5.90
2022-11-20T03:22:56.990Z,6.55
2022-11-20T03:23:59.043Z,6.45
2022-11-20T03:25:02.092Z,5.70
2022-11-20T03:26:16.675Z,6.65
2022-11-20T03:27:21.124Z,7.13
2022-11-20T03:28:23.205Z,6.38
2022-11-20T03:29:26.421Z,5.22
2022-11-20T03:30:30.769Z,7.50
2022-11-20T03:31:35.782Z,5.15
2022-11-20T03:32:37.893Z,7.55
2022-11-20T03:33:41.772Z,5.82
2022-11-20T03:34:43.834Z,7.75
2022-11-20T03:35:46.899Z,5.47
2022-11-20T03:36:48.908Z,6.72
2022-11-20T03:37:51.965Z,8.10
2022-11-20T03:38:55.208Z,5.85
2022-11-20T03:39:58.213Z,6.80
2022-11-20T03:41:01.910Z,6.80
2022-11-20T03:42:25.114Z,8.27
2022-11-20T03:43:28.650Z,10.55
2022-11-20T03:44:31.702Z,11.00
2022-11-20T03:45:33.714Z,5.82
2022-11-20T03:46:36.900Z,6.57
2022-11-20T03:47:38.954Z,9.20
2022-11-20T03:48:41.975Z,7.47
2022-11-20T03:49:43.975Z,8.80
2022-11-20T03:50:48.564Z,8.40
2022-11-20T03:51:50.616Z,7.35
2022-11-20T03:52:53.628Z,6.75
2022-11-20T03:53:57.533Z,8.50
2022-11-20T03:55:00.543Z,7.55
2022-11-20T03:56:02.593Z,6.15
2022-11-20T03:57:05.674Z,6.57
2022-11-20T03:58:07.765Z,6.88
2022-11-20T03:59:13.455Z,7.35
2022-11-20T04:00:16.188Z,7.65
2022-11-20T04:01:21.416Z,7.47
2022-11-20T04:02:23.574Z,6.10
2022-11-20T04:03:27.815Z,11.23
2022-11-20T04:04:29.858Z,6.30
2022-11-20T04:05:34.850Z,8.95
2022-11-20T04:06:39.844Z,6.30
2022-11-20T04:07:41.981Z,8.05
2022-11-20T04:08:48.542Z,7.00
2022-11-20T04:09:53.047Z,9.80
2022-11-20T04:10:56.149Z,8.25
2022-11-20T04:11:58.216Z,6.05
2022-11-20T04:13:01.297Z,8.50
2022-11-20T04:14:05.723Z,7.70
2022-11-20T04:15:11.126Z,8.27
2022-11-20T04:16:13.182Z,7.15
2022-11-20T04:17:16.254Z,6.50
2022-11-20T04:18:18.390Z,7.47
2022-11-20T04:19:21.582Z,6.72
2022-11-20T04:20:23.801Z,7.35
2022-11-20T04:21:27.818Z,7.40
2022-11-20T04:22:29.835Z,6.22
2022-11-20T04:23:33.007Z,13.13
2022-11-20T04:24:35.192Z,7.15
2022-11-20T04:25:38.240Z,8.35
2022-11-20T04:26:40.805Z,10.43
2022-11-20T04:27:43.903Z,8.88
2022-11-20T04:28:46.071Z,8.23
2022-11-20T04:29:49.178Z,8.13
2022-11-20T04:30:52.755Z,6.28
2022-11-20T04:31:55.832Z,8.50
2022-11-20T04:32:57.858Z,8.63
2022-11-20T04:34:01.968Z,6.38
2022-11-20T04:35:04.399Z,6.55
2022-11-20T04:36:12.261Z,7.03
2022-11-20T04:37:14.287Z,9.57
2022-11-20T04:38:17.361Z,8.10
2022-11-20T04:39:19.640Z,5.75
2022-11-20T04:40:22.870Z,5.22
2022-11-20T04:41:27.435Z,6.50
2022-11-20T04:42:30.529Z,6.75
2022-11-20T04:43:33.432Z,7.57
2022-11-20T04:44:36.593Z,6.05
2022-11-20T04:45:38.599Z,7.55
2022-11-20T04:46:44.338Z,5.72
2022-11-20T04:47:46.338Z,6.68
2022-11-20T04:48:49.927Z,6.50
2022-11-20T04:49:52.070Z,6.38
2022-11-20T04:50:55.664Z,5.45
2022-11-20T04:51:57.921Z,7.10
2022-11-20T04:53:01.061Z,8.23
2022-11-20T04:54:03.697Z,7.60
2022-11-20T04:55:07.763Z,8.85
2022-11-20T04:56:11.719Z,4.80
2022-11-20T04:57:16.721Z,6.80
2022-11-20T04:58:18.766Z,5.55
2022-11-20T04:59:22.066Z,10.68
2022-11-20T05:00:25.545Z,6.53
2022-11-20T05:01:27.607Z,7.43
2022-11-20T05:02:33.423Z,7.63
2022-11-20T05:03:39.694Z,9.45
2022-11-20T05:04:45.160Z,8.93
2022-11-20T05:05:47.191Z,11.32
2022-11-20T05:06:51.557Z,6.38
2022-11-20T05:07:53.624Z,8.63
2022-11-20T05:08:56.697Z,5.93
2022-11-20T05:09:58.786Z,5.45
2022-11-20T05:11:02.824Z,6.05
2022-11-20T05:12:05.209Z,6.15
2022-11-20T05:13:08.213Z,5.20
2022-11-20T05:14:10.393Z,4.93
2022-11-20T05:15:13.822Z,9.52
2022-11-20T05:16:18.201Z,7.22
2022-11-20T05:17:21.533Z,5.40
2022-11-20T05:18:24.924Z,7.63
2022-11-20T05:19:27.995Z,9.68
2022-11-20T05:20:30.003Z,11.32
2022-11-20T05:21:33.389Z,8.05
2022-11-20T05:22:35.392Z,8.10
2022-11-20T05:23:39.296Z,10.02
2022-11-20T05:24:41.327Z,6.90
2022-11-20T05:25:44.467Z,7.03
2022-11-20T05:26:46.498Z,9.43
2022-11-20T05:27:49.667Z,8.23
2022-11-20T05:28:52.240Z,6.85
2022-11-20T05:29:55.308Z,5.35
2022-11-20T05:30:57.404Z,6.25
2022-11-20T05:32:00.508Z,6.45
2022-11-20T05:33:02.505Z,6.25
2022-11-20T05:34:06.891Z,7.35
2022-11-20T05:35:09.306Z,7.68
2022-11-20T05:36:13.075Z,6.07
2022-11-20T05:37:15.158Z,10.85
2022-11-20T05:38:18.249Z,6.10
2022-11-20T05:39:20.510Z,6.95
2022-11-20T05:40:23.678Z,6.43
2022-11-20T05:41:26.262Z,6.70
2022-11-20T05:42:32.426Z,7.15
2022-11-20T05:43:35.770Z,8.93
2022-11-20T05:44:38.846Z,6.55
2022-11-20T05:45:40.869Z,10.65
2022-11-20T05:46:43.903Z,8.75
2022-11-20T05:47:45.923Z,7.97
2022-11-20T05:48:49.118Z,8.00
2022-11-20T05:49:52.566Z,8.32
2022-11-20T05:50:55.763Z,7.88
2022-11-20T05:51:57.920Z,8.00
2022-11-20T05:53:01.461Z,5.55
2022-11-20T05:54:03.656Z,6.47
2022-11-20T05:55:07.684Z,6.75
2022-11-20T05:56:12.279Z,7.50
2022-11-20T05:57:15.365Z,7.07
2022-11-20T05:58:17.378Z,6.13
2022-11-20T05:59:20.707Z,7.20
2022-11-20T06:00:23.450Z,7.97
2022-11-20T06:01:27.768Z,7.47
2022-11-20T06:02:29.850Z,9.15
2022-11-20T06:03:32.958Z,6.60
2022-11-20T06:04:36.028Z,7.18
2022-11-20T06:05:39.424Z,6.75
2022-11-20T06:06:42.510Z,8.80
2022-11-20T06:07:44.527Z,9.05
2022-11-20T06:08:47.882Z,8.60
2022-11-20T06:09:49.896Z,7.05
2022-11-20T06:10:52.938Z,7.82
2022-11-20T06:11:54.906Z,7.10
2022-11-20T06:12:59.613Z,9.07
2022-11-20T06:14:01.630Z,10.70
2022-11-20T06:15:05.107Z,11.73
2022-11-20T06:16:07.726Z,13.52
2022-11-20T06:17:10.749Z,9.38
2022-11-20T06:18:12.720Z,10.00
2022-11-20T06:19:16.032Z,11.60
2022-11-20T06:20:18.053Z,8.95
2022-11-20T06:21:24.097Z,11.23
2022-11-20T06:22:26.119Z,9.15
2022-11-20T06:23:30.858Z,10.32
2022-11-20T06:24:32.903Z,9.85
2022-11-20T06:25:39.795Z,9.52
2022-11-20T06:26:41.884Z,11.27
2022-11-20T06:27:44.963Z,9.98
2022-11-20T06:28:47.241Z,9.57
2022-11-20T06:29:50.247Z,9.00
2022-11-20T06:30:52.254Z,9.40
2022-11-20T06:31:55.308Z,9.13
2022-11-20T06:32:57.322Z,9.23
2022-11-20T06:34:00.426Z,9.07
2022-11-20T06:35:02.467Z,10.40
2022-11-20T06:36:10.645Z,11.93
2022-11-20T06:37:14.551Z,10.48
2022-11-20T06:38:17.607Z,12.77
2022-11-20T06:39:20.939Z,10.00
2022-11-20T06:40:23.135Z,9.77
2022-11-20T06:41:26.273Z,14.07
2022-11-20T06:42:28.291Z,10.93
2022-11-20T06:43:31.483Z,11.82
2022-11-20T06:44:33.804Z,8.60
2022-11-20T06:45:36.900Z,12.80
2022-11-20T06:46:38.937Z,8.20
2022-11-20T06:47:42.018Z,10.50
2022-11-20T06:48:44.315Z,11.32
2022-11-20T06:49:47.355Z,8.95
2022-11-20T06:50:49.352Z,8.40
2022-11-20T06:51:52.432Z,8.00
2022-11-20T06:52:55.861Z,8.40
2022-11-20T06:53:58.990Z,9.07
2022-11-20T06:55:01.011Z,9.00
2022-11-20T06:56:04.641Z,10.88
2022-11-20T06:57:07.953Z,8.57
2022-11-20T06:58:10.187Z,9.55
2022-11-20T06:59:13.360Z,7.57
2022-11-20T07:00:15.930Z,7.60
2022-11-20T07:01:19.028Z,9.43
2022-11-20T07:02:21.086Z,9.80
2022-11-20T07:03:24.239Z,10.23
2022-11-20T07:04:26.232Z,9.95
2022-11-20T07:05:29.324Z,9.23
2022-11-20T07:06:31.495Z,11.38
2022-11-20T07:07:34.533Z,10.18
2022-11-20T07:08:38.238Z,10.23
2022-11-20T07:09:41.220Z,9.40
2022-11-20T07:10:44.323Z,9.13
2022-11-20T07:11:46.659Z,9.52
2022-11-20T07:12:52.026Z,10.88
2022-11-20T07:13:55.193Z,8.52
2022-11-20T07:14:57.793Z,10.15
2022-11-20T07:16:03.022Z,11.25
2022-11-20T07:17:06.074Z,8.93
2022-11-20T07:18:08.165Z,11.13
2022-11-20T07:19:11.448Z,10.23
2022-11-20T07:20:13.682Z,8.68
2022-11-20T07:21:17.002Z,8.52
2022-11-20T07:22:19.043Z,10.85
2022-11-20T07:23:22.158Z,9.00
2022-11-20T07:24:25.604Z,9.98
2022-11-20T07:25:30.100Z,7.63
2022-11-20T07:26:33.174Z,10.23
2022-11-20T07:27:35.430Z,8.98
2022-11-20T07:28:39.026Z,7.57
2022-11-20T07:29:41.179Z,8.82
2022-11-20T07:30:44.266Z,8.93
2022-11-20T07:31:46.272Z,9.23
2022-11-20T07:32:49.881Z,7.30
2022-11-20T07:33:52.992Z,10.07
2022-11-20T07:34:55.056Z,13.38
2022-11-20T07:36:00.163Z,8.52
2022-11-20T07:37:04.871Z,7.25
2022-11-20T07:38:12.096Z,8.25
2022-11-20T07:39:15.174Z,10.32
2022-11-20T07:40:19.057Z,13.40
2022-11-20T07:41:22.079Z,9.73
2022-11-20T07:42:24.227Z,9.27
2022-11-20T07:43:30.180Z,12.60
2022-11-20T07:44:33.284Z,11.45
2022-11-20T07:45:36.485Z,10.40
2022-11-20T07:46:38.514Z,12.07
2022-11-20T07:47:43.665Z,8.02
2022-11-20T07:48:46.727Z,9.40
2022-11-20T07:49:49.950Z,11.10
2022-11-20T07:50:54.941Z,9.82
2022-11-20T07:52:03.126Z,11.15
2022-11-20T07:53:07.894Z,9.60
2022-11-20T07:54:09.937Z,9.05
2022-11-20T07:55:13.640Z,10.23
2022-11-20T07:56:17.195Z,10.68
2022-11-20T07:57:25.593Z,9.60
2022-11-20T07:58:33.805Z,8.75
2022-11-20T07:59:35.969Z,9.00
2022-11-20T08:00:39.155Z,10.90
2022-11-20T08:01:42.454Z,8.85
2022-11-20T08:02:44.612Z,8.48
2022-11-20T08:03:47.663Z,8.57
2022-11-20T08:04:50.652Z,8.43
2022-11-20T08:05:53.924Z,8.77
2022-11-20T08:06:55.970Z,13.10
2022-11-20T08:07:58.961Z,8.25
2022-11-20T08:09:01.052Z,7.15
2022-11-20T08:10:04.270Z,9.05
2022-11-20T08:11:25.258Z,6.40
2022-11-20T08:12:47.029Z,9.35
2022-11-20T08:14:07.828Z,8.27
2022-11-20T08:16:15.614Z,6.97
2022-11-20T08:17:18.822Z,6.07
2022-11-20T08:18:37.217Z,7.28
2022-11-20T08:19:39.344Z,6.28
2022-11-20T08:20:42.386Z,7.22
2022-11-20T08:21:45.201Z,9.55
2022-11-20T08:22:48.258Z,7.85
2022-11-20T08:23:50.266Z,7.85
2022-11-20T08:24:53.412Z,6.38
2022-11-20T08:25:55.517Z,7.40
2022-11-20T08:27:00.079Z,6.63
2022-11-20T08:28:12.981Z,6.28
2022-11-20T08:29:22.024Z,5.18
2022-11-20T08:30:24.612Z,5.28
2022-11-20T08:31:29.375Z,5.30
2022-11-20T08:32:31.443Z,4.88
2022-11-20T08:33:34.605Z,5.15
2022-11-20T08:34:37.670Z,5.80
2022-11-20T08:35:40.014Z,6.22
2022-11-20T08:36:43.259Z,6.43
2022-11-20T08:37:47.409Z,4.55
2022-11-20T08:38:50.616Z,5.78
2022-11-20T08:39:54.496Z,4.47
2022-11-20T08:41:15.900Z,4.85
2022-11-20T08:42:19.239Z,4.97
2022-11-20T08:43:22.691Z,6.05
2022-11-20T08:44:25.724Z,7.15
2022-11-20T08:45:33.459Z,5.70
2022-11-20T08:46:39.362Z,4.57
2022-11-20T08:47:41.979Z,5.65
2022-11-20T08:48:45.782Z,5.90
2022-11-20T08:49:48.805Z,4.93
2022-11-20T08:50:50.887Z,5.88
2022-11-20T08:51:56.131Z,5.03
2022-11-20T08:53:03.638Z,6.28
2022-11-20T08:54:08.031Z,5.03
2022-11-20T08:55:11.029Z,6.75
2022-11-20T08:56:14.514Z,4.68
2022-11-20T08:57:16.555Z,4.90
2022-11-20T08:58:19.708Z,6.68
2022-11-20T08:59:43.911Z,6.10
2022-11-20T09:00:46.414Z,5.93
2022-11-20T09:01:49.641Z,5.28
2022-11-20T09:02:52.886Z,5.25
2022-11-20T09:03:57.918Z,6.25
2022-11-20T09:05:00.027Z,6.45
2022-11-20T09:06:05.254Z,6.65
2022-11-20T09:07:08.726Z,5.75
2022-11-20T09:08:10.928Z,6.05
2022-11-20T09:09:14.369Z,5.90
2022-11-20T09:10:28.027Z,6.35
2022-11-20T09:11:31.248Z,6.00
2022-11-20T09:12:33.731Z,5.80
2022-11-20T09:13:38.153Z,6.18
2022-11-20T09:14:41.598Z,5.03
2022-11-20T09:15:44.671Z,5.30
2022-11-20T09:16:47.795Z,9.52
2022-11-20T09:17:53.186Z,6.05
2022-11-20T09:19:13.559Z,6.03
2022-11-20T09:20:18.248Z,6.15
2022-11-20T09:21:21.330Z,4.75
2022-11-20T09:22:24.663Z,4.88
2022-11-20T09:23:28.215Z,5.80
2022-11-20T09:24:30.416Z,6.93
2022-11-20T09:25:33.391Z,6.70
2022-11-20T09:26:35.509Z,6.55
2022-11-20T09:27:38.554Z,4.25
2022-11-20T09:28:41.194Z,6.25
2022-11-20T09:29:45.641Z,4.78
2022-11-20T09:30:47.700Z,6.22
2022-11-20T09:31:50.831Z,5.55
2022-11-20T09:32:52.982Z,7.15
2022-11-20T09:33:59.231Z,6.88
2022-11-20T09:35:02.377Z,6.32
2022-11-20T09:36:06.149Z,6.45
2022-11-20T09:37:09.311Z,4.68
2022-11-20T09:38:12.107Z,6.32
2022-11-20T09:39:15.161Z,6.88
2022-11-20T09:40:21.424Z,6.13
2022-11-20T09:41:47.057Z,4.38
2022-11-20T09:42:57.022Z,5.32
2022-11-20T09:44:07.355Z,5.63
2022-11-20T09:45:22.694Z,6.10
2022-11-20T09:46:33.398Z,6.30
2022-11-20T09:49:02.947Z,5.65
2022-11-20T09:50:25.130Z,5.07
2022-11-20T09:51:39.466Z,6.32
2022-11-20T09:52:50.191Z,5.60
2022-11-20T09:55:03.149Z,5.55
2022-11-20T09:56:05.868Z,5.18
2022-11-20T09:57:13.715Z,4.38
2022-11-20T09:58:27.074Z,5.40
2022-11-20T09:59:37.286Z,5.15
2022-11-20T10:00:40.962Z,6.15
2022-11-20T10:01:45.657Z,4.88
2022-11-20T10:02:55.171Z,6.25
2022-11-20T10:04:00.290Z,5.68
2022-11-20T10:05:08.880Z,6.32
2022-11-20T10:06:17.571Z,6.15
2022-11-20T10:07:33.601Z,4.75
2022-11-20T10:08:43.295Z,4.80
2022-11-20T10:09:53.420Z,5.72
2022-11-20T10:11:02.522Z,4.05
2022-11-20T10:12:17.747Z,4.25
2022-11-20T10:13:34.107Z,4.63
2022-11-20T10:14:47.899Z,4.03
2022-11-20T10:16:02.846Z,5.22
2022-11-20T10:17:18.727Z,4.55
2022-11-20T10:18:36.169Z,4.80
2022-11-20T10:19:50.623Z,5.13
2022-11-20T10:21:04.218Z,4.80
2022-11-20T10:22:15.638Z,4.80
2022-11-20T10:23:32.398Z,6.50
2022-11-20T10:24:51.488Z,5.65
2022-11-20T10:26:01.178Z,5.15
2022-11-20T10:27:18.525Z,4.95
2022-11-20T10:28:32.372Z,5.20
2022-11-20T10:29:35.841Z,5.93
2022-11-20T10:30:43.679Z,6.95
2022-11-20T10:31:52.732Z,5.43
2022-11-20T10:33:01.445Z,5.53
2022-11-20T10:34:13.064Z,5.43
2022-11-20T10:35:25.893Z,5.85
2022-11-20T10:36:32.439Z,6.15
2022-11-20T10:37:38.722Z,4.95
2022-11-20T10:38:45.928Z,5.53
2022-11-20T10:39:56.585Z,5.63
2022-11-20T10:41:17.375Z,5.75
2022-11-20T10:42:30.976Z,4.93
2022-11-20T10:43:36.546Z,5.72
2022-11-20T10:45:05.716Z,4.68
2022-11-20T10:46:17.622Z,3.65
2022-11-20T10:47:22.046Z,3.80
2022-11-20T10:48:27.245Z,4.40
2022-11-20T10:49:29.601Z,5.30
2022-11-20T10:50:33.226Z,5.30
2022-11-20T10:51:42.811Z,6.85
2022-11-20T10:52:58.734Z,4.97
2022-11-20T10:54:14.899Z,4.40
2022-11-20T10:55:30.777Z,6.78
2022-11-20T10:56:42.363Z,6.18
2022-11-20T10:57:55.404Z,6.75
2022-11-20T10:59:25.329Z,5.75
2022-11-20T11:00:28.411Z,5.28
2022-11-20T11:01:30.550Z,5.85
2022-11-20T11:02:41.401Z,5.72
2022-11-20T11:04:49.633Z,5.05
2022-11-20T11:05:56.987Z,4.75
2022-11-20T11:07:08.340Z,4.88
2022-11-20T11:08:16.298Z,4.53
2022-11-20T11:09:27.946Z,5.30
2022-11-20T11:10:43.307Z,6.13
2022-11-20T11:11:46.425Z,8.05
2022-11-20T11:12:50.076Z,5.07
2022-11-20T11:13:52.298Z,4.68
2022-11-20T11:14:56.660Z,4.07
2022-11-20T11:15:58.911Z,4.43
2022-11-20T11:17:02.124Z,4.30
2022-11-20T11:18:06.191Z,5.03
2022-11-20T11:19:15.774Z,4.38
2022-11-20T11:20:20.652Z,4.78
2022-11-20T11:21:26.524Z,5.10
2022-11-20T11:22:30.881Z,5.40
2022-11-20T11:23:36.479Z,4.65
2022-11-20T11:24:43.009Z,4.57
2022-11-20T11:25:58.953Z,4.80
2022-11-20T11:27:05.497Z,5.70
2022-11-20T11:28:22.538Z,4.15
2022-11-20T11:29:27.660Z,4.07
2022-11-20T11:30:42.517Z,4.28
2022-11-20T11:31:44.782Z,4.15
2022-11-20T11:32:48.096Z,3.85
2022-11-20T11:33:52.719Z,3.45
2022-11-20T11:35:01.842Z,5.03
2022-11-20T11:36:07.033Z,3.33
2022-11-20T11:37:18.493Z,3.95
2022-11-20T11:38:25.249Z,3.92
2022-11-20T11:39:29.778Z,2.95
2022-11-20T11:40:35.090Z,4.03
2022-11-20T11:41:38.442Z,2.97
2022-11-20T11:42:44.172Z,4.47
2022-11-20T11:44:12.002Z,3.58
2022-11-20T11:45:18.408Z,4.47
2022-11-20T11:46:30.641Z,3.72
2022-11-20T11:47:35.424Z,3.15
2022-11-20T11:48:37.525Z,2.97
2022-11-20T11:49:42.488Z,3.60
2022-11-20T11:50:51.281Z,2.65
2022-11-20T11:52:14.923Z,3.70
2022-11-20T11:53:20.664Z,3.60
2022-11-20T11:54:26.555Z,4.35
2022-11-20T11:55:35.362Z,3.22
2022-11-20T11:56:37.806Z,4.35
2022-11-20T11:57:49.454Z,2.85
2022-11-20T11:58:52.926Z,2.72
2022-11-20T12:00:04.271Z,2.78
2022-11-20T12:01:22.873Z,2.92
2022-11-20T12:02:35.165Z,4.32
2022-11-20T12:03:42.264Z,5.53
2022-11-20T12:04:56.059Z,3.78
2022-11-20T12:06:01.764Z,3.90
2022-11-20T12:07:38.913Z,4.95
2022-11-20T12:08:43.093Z,4.77
2022-11-20T12:09:52.146Z,4.43
2022-11-20T12:11:01.600Z,3.90
2022-11-20T12:12:12.586Z,4.53
2022-11-20T12:14:35.913Z,4.65
2022-11-20T12:15:46.337Z,4.05
2022-11-20T12:16:49.493Z,5.45
2022-11-20T12:17:51.810Z,5.03
2022-11-20T12:18:55.503Z,3.90
2022-11-20T12:19:59.140Z,5.53
2022-11-20T12:21:13.957Z,3.92
2022-11-20T12:22:29.825Z,4.82
2022-11-20T12:23:43.702Z,4.22
2022-11-20T12:24:57.516Z,3.75
2022-11-20T12:26:09.507Z,3.35
2022-11-20T12:27:56.136Z,4.07
2022-11-20T12:29:09.762Z,3.80
2022-11-20T12:30:13.424Z,6.07
2022-11-20T12:31:42.947Z,3.85
2022-11-20T12:33:15.494Z,5.28
2022-11-20T12:34:54.392Z,4.90
2022-11-20T12:36:09.821Z,4.32
2022-11-20T12:37:26.773Z,4.45
2022-11-20T12:38:58.987Z,2.97
2022-11-20T12:40:18.040Z,2.67
2022-11-20T12:42:01.880Z,4.72
2022-11-20T12:43:36.325Z,3.13
2022-11-20T12:45:12.911Z,6.00
2022-11-20T12:46:28.149Z,2.25
2022-11-20T12:47:41.737Z,3.50
2022-11-20T12:49:05.719Z,2.25
2022-11-20T12:50:20.243Z,2.05
2022-11-20T12:51:54.333Z,2.25
2022-11-20T12:53:02.590Z,2.42
2022-11-20T12:54:27.071Z,3.63
2022-11-20T12:55:47.537Z,2.60
2022-11-20T12:57:03.414Z,2.80
2022-11-20T12:58:15.199Z,3.22
2022-11-20T12:59:32.714Z,3.40
2022-11-20T13:00:37.936Z,4.10
2022-11-20T13:01:48.831Z,5.75
2022-11-20T13:03:09.144Z,3.30
2022-11-20T13:04:45.143Z,4.28
2022-11-20T13:05:58.875Z,3.28
2022-11-20T13:07:05.008Z,2.95
2022-11-20T13:08:15.920Z,3.33
2022-11-20T13:09:22.893Z,2.78
2022-11-20T13:10:34.046Z,2.65
2022-11-20T13:11:43.646Z,2.47
2022-11-20T13:12:50.489Z,2.80
2022-11-20T13:14:13.157Z,3.67
2022-11-20T13:15:23.868Z,2.42
2022-11-20T13:17:40.904Z,3.22
2022-11-20T13:18:46.227Z,2.65
2022-11-20T13:19:54.028Z,2.67
2022-11-20T13:20:57.325Z,2.53
2022-11-20T13:22:00.530Z,3.28
2022-11-20T13:23:05.413Z,2.90
2022-11-20T13:24:08.504Z,3.53
2022-11-20T13:25:16.272Z,2.55
2022-11-20T13:26:22.905Z,3.08
2022-11-20T13:27:25.487Z,3.50
2022-11-20T13:28:31.091Z,2.92
2022-11-20T13:29:35.434Z,3.75
2022-11-20T13:30:50.878Z,4.68
2022-11-20T13:32:07.733Z,3.45
2022-11-20T13:33:25.816Z,2.80
2022-11-20T13:34:28.756Z,3.97
2022-11-20T13:35:34.192Z,3.20
2022-11-20T13:36:37.629Z,2.55
2022-11-20T13:37:41.138Z,2.67
2022-11-20T13:38:48.051Z,5.78
2022-11-20T13:39:51.199Z,3.67
2022-11-20T13:40:55.704Z,3.28
2022-11-20T13:42:00.000Z,7.55
2022-11-20T13:43:11.999Z,3.60
2022-11-20T13:44:20.365Z,3.90
2022-11-20T13:45:26.421Z,2.80
2022-11-20T13:46:39.540Z,2.80
2022-11-20T13:47:52.330Z,3.65
2022-11-20T13:48:57.364Z,4.70
2022-11-20T13:50:01.702Z,5.03
2022-11-20T13:51:25.320Z,2.83
2022-11-20T13:52:47.691Z,4.05
2022-11-20T13:54:08.995Z,3.67
2022-11-20T13:55:21.917Z,3.75
2022-11-20T13:56:41.779Z,3.47
2022-11-20T13:57:58.590Z,4.15
2022-11-20T13:59:14.775Z,3.92
2022-11-20T14:00:20.411Z,3.88
2022-11-20T14:01:24.865Z,3.70
2022-11-20T14:02:30.501Z,5.78
2022-11-20T14:04:05.516Z,2.80
2022-11-20T14:05:01.871Z,4.47
2022-11-20T14:06:07.123Z,3.97
2022-11-20T14:07:11.905Z,4.75
2022-11-20T14:08:22.842Z,3.95
2022-11-20T14:09:32.120Z,5.68
2022-11-20T14:10:34.221Z,7.43
2022-11-20T14:11:37.572Z,5.25
2022-11-20T14:12:40.724Z,5.38
2022-11-20T14:13:57.095Z,5.53
2022-11-20T14:15:03.470Z,6.80
2022-11-20T14:16:06.562Z,7.53
2022-11-20T14:17:11.279Z,6.70
2022-11-20T14:18:16.680Z,5.20
2022-11-20T14:19:29.257Z,5.72
2022-11-20T14:20:33.249Z,4.97
2022-11-20T14:21:35.418Z,3.80
2022-11-20T14:22:38.459Z,5.00
2022-11-20T14:23:40.577Z,5.85
2022-11-20T14:24:45.261Z,2.80
2022-11-20T14:25:48.395Z,4.68
2022-11-20T14:26:51.796Z,4.72
2022-11-20T14:27:56.949Z,4.10
2022-11-20T14:28:59.620Z,4.97
2022-11-20T14:30:03.689Z,4.60
2022-11-20T14:31:19.218Z,4.78
2022-11-20T14:32:32.617Z,7.93
2022-11-20T14:33:35.069Z,4.93
2022-11-20T14:34:42.503Z,5.05
2022-11-20T14:35:46.730Z,4.97
2022-11-20T14:36:50.199Z,4.63
2022-11-20T14:37:53.349Z,3.85
2022-11-20T14:38:56.493Z,4.97
2022-11-20T14:40:00.135Z,5.55
2022-11-20T14:41:19.800Z,4.50
2022-11-20T14:42:23.792Z,5.47
2022-11-20T14:43:28.391Z,4.50
2022-11-20T14:44:33.716Z,7.13
2022-11-20T14:45:37.005Z,5.13